createdAt,value
2023-04-08T00:02:05.902Z,95002.63
2023-04-08T00:04:49.143Z,94994.53
2023-04-08T00:07:32.396Z,94998.81
2023-04-08T00:10:15.604Z,95000.69
2023-04-08T00:12:58.748Z,94998.56
2023-04-08T00:15:42.490Z,94997.94
2023-04-08T00:18:27.285Z,95009.53
2023-04-08T00:21:10.760Z,95011.97
2023-04-08T00:23:54.190Z,95014.56
2023-04-08T00:26:37.783Z,95010.03
2023-04-08T00:29:20.970Z,95008.91
2023-04-08T00:32:04.277Z,95010.84
2023-04-08T00:34:49.738Z,95015.16
2023-04-08T00:37:32.999Z,95010.31
2023-04-08T00:40:16.300Z,95007.03
2023-04-08T00:42:59.772Z,95007.25
2023-04-08T00:45:44.665Z,95003.28
2023-04-08T00:48:27.869Z,95007.66
2023-04-08T00:51:12.993Z,95013.63
2023-04-08T00:53:56.676Z,95016.44
2023-04-08T00:56:40.111Z,95013.28
2023-04-08T00:59:23.633Z,95008.53
2023-04-08T01:02:18.474Z,95007.97
2023-04-08T01:05:07.097Z,95009.34
2023-04-08T01:07:52.709Z,95011.72
2023-04-08T01:10:38.257Z,95012.47
2023-04-08T01:13:27.053Z,95013.16
2023-04-08T01:16:14.346Z,95002.91
2023-04-08T01:18:58.239Z,95005.44
2023-04-08T01:21:42.110Z,95020.41
2023-04-08T01:24:31.189Z,95010.47
2023-04-08T01:27:18.306Z,95010.84
2023-04-08T01:30:04.617Z,95009.78
2023-04-08T01:32:49.392Z,95009.78
2023-04-08T01:35:33.434Z,95010.53
2023-04-08T01:38:19.749Z,95013.34
2023-04-08T01:41:04.309Z,95015.25
2023-04-08T01:43:50.032Z,95018.44
2023-04-08T01:46:34.065Z,95018.81
2023-04-08T01:49:18.462Z,95018.19
2023-04-08T01:52:03.003Z,95029.28
2023-04-08T01:54:46.199Z,95015.69
2023-04-08T01:57:32.474Z,95022.34
2023-04-08T02:00:21.888Z,95031.72
2023-04-08T02:03:08.397Z,95029.59
2023-04-08T02:05:52.037Z,95037.94
2023-04-08T02:08:36.296Z,95040.31
2023-04-08T02:11:21.381Z,95043.88
2023-04-08T02:14:04.701Z,95042.66
2023-04-08T02:16:55.969Z,95041.31
2023-04-08T02:19:45.997Z,95037.13
2023-04-08T02:22:39.843Z,95039.59
2023-04-08T02:25:26.584Z,95039.22
2023-04-08T02:28:12.852Z,95046.19
2023-04-08T02:31:00.941Z,95033.59
2023-04-08T02:33:47.639Z,95034.06
2023-04-08T02:36:33.366Z,95036.41
2023-04-08T02:39:16.949Z,95032.09
2023-04-08T02:42:01.753Z,95033.78
2023-04-08T02:44:45.140Z,95046.53
2023-04-08T02:47:28.400Z,95039.59
2023-04-08T02:50:13.260Z,95037.63
2023-04-08T02:52:56.875Z,95042.28
2023-04-08T02:55:40.236Z,95035.06
2023-04-08T02:58:23.680Z,95038.25
2023-04-08T03:01:07.150Z,95034.25
2023-04-08T03:03:50.692Z,95042.41
2023-04-08T03:06:35.445Z,95039.84
2023-04-08T03:09:18.616Z,95044.19
2023-04-08T03:12:01.865Z,95034.25
2023-04-08T03:14:45.101Z,95036.75
2023-04-08T03:17:28.810Z,95039.69
2023-04-08T03:20:12.671Z,95039.16
2023-04-08T03:22:57.370Z,95039.69
2023-04-08T03:25:40.674Z,95035.91
2023-04-08T03:28:24.062Z,95044.00
2023-04-08T03:31:07.514Z,95049.63
2023-04-08T03:33:50.643Z,95051.03
2023-04-08T03:36:33.681Z,95049.03
2023-04-08T03:39:18.348Z,95054.53
2023-04-08T03:42:03.159Z,95047.44
2023-04-08T03:44:46.296Z,95050.25
2023-04-08T03:47:29.558Z,95045.47
2023-04-08T03:50:13.572Z,95048.41
2023-04-08T03:52:56.860Z,95048.03
2023-04-08T03:55:41.795Z,95041.78
2023-04-08T03:58:27.269Z,95050.31
2023-04-08T04:01:10.828Z,95050.00
2023-04-08T04:03:54.078Z,95042.03
2023-04-08T04:06:37.938Z,95048.38
2023-04-08T04:09:21.754Z,95043.00
2023-04-08T04:12:08.054Z,95037.13
2023-04-08T04:14:51.343Z,95038.00
2023-04-08T04:17:37.119Z,95046.25
2023-04-08T04:20:21.935Z,95051.59
2023-04-08T04:23:05.239Z,95051.91
2023-04-08T04:25:48.314Z,95064.66
2023-04-08T04:28:32.892Z,95061.66
2023-04-08T04:31:20.859Z,95066.28
2023-04-08T04:34:04.449Z,95061.88
2023-04-08T04:36:47.572Z,95054.63
2023-04-08T04:39:33.578Z,95056.28
2023-04-08T04:42:17.078Z,95056.81
2023-04-08T04:45:01.600Z,95054.78
2023-04-08T04:47:45.008Z,95054.78
2023-04-08T04:50:28.101Z,95053.88
2023-04-08T04:53:11.261Z,95053.97
2023-04-08T04:55:54.408Z,95052.91
2023-04-08T04:58:37.470Z,95055.34
2023-04-08T05:01:22.193Z,95061.63
2023-04-08T05:04:05.550Z,95064.28
2023-04-08T05:06:48.706Z,95068.28
2023-04-08T05:09:32.351Z,95061.41
2023-04-08T05:12:15.975Z,95056.53
2023-04-08T05:15:00.275Z,95058.56
2023-04-08T05:17:44.886Z,95056.50
2023-04-08T05:20:28.094Z,95056.41
2023-04-08T05:23:11.924Z,95054.16
2023-04-08T05:25:55.296Z,95058.53
2023-04-08T05:28:38.344Z,95054.50
2023-04-08T05:31:22.353Z,95056.38
2023-04-08T05:34:07.071Z,95059.56
2023-04-08T05:36:52.070Z,95061.53
2023-04-08T05:39:35.235Z,95062.34
2023-04-08T05:42:18.406Z,95062.56
2023-04-08T05:45:01.834Z,95060.19
2023-04-08T05:47:45.312Z,95059.97
2023-04-08T05:50:29.958Z,95053.09
2023-04-08T05:53:13.612Z,95057.50
2023-04-08T05:55:56.794Z,95052.75
2023-04-08T05:58:41.179Z,95059.66
2023-04-08T06:01:25.530Z,95053.63
2023-04-08T06:04:10.337Z,95056.41
2023-04-08T06:06:58.139Z,95054.63
2023-04-08T06:09:41.482Z,95052.78
2023-04-08T06:12:24.782Z,95054.88
2023-04-08T06:15:09.684Z,95051.75
2023-04-08T06:17:55.499Z,95043.72
2023-04-08T06:20:39.041Z,95053.13
2023-04-08T06:23:23.648Z,95055.22
2023-04-08T06:26:07.275Z,95052.22
2023-04-08T06:28:51.038Z,95047.13
2023-04-08T06:31:34.700Z,95044.78
2023-04-08T06:34:18.249Z,95052.41
2023-04-08T06:37:01.724Z,95046.47
2023-04-08T06:39:46.587Z,95055.06
2023-04-08T06:42:29.769Z,95055.38
2023-04-08T06:45:14.738Z,95060.28
2023-04-08T06:47:59.653Z,95060.59
2023-04-08T06:50:44.185Z,95060.75
2023-04-08T06:53:29.472Z,95065.47
2023-04-08T06:56:14.318Z,95052.44
2023-04-08T06:58:57.528Z,95061.66
2023-04-08T07:01:41.562Z,95057.44
2023-04-08T07:04:24.856Z,95057.88
2023-04-08T07:07:08.621Z,95057.16
2023-04-08T07:09:53.819Z,95056.84
2023-04-08T07:12:39.026Z,95062.47
2023-04-08T07:15:23.536Z,95052.44
2023-04-08T07:18:08.002Z,95059.25
2023-04-08T07:20:53.998Z,95053.03
2023-04-08T07:23:37.218Z,95057.03
2023-04-08T07:26:20.541Z,95060.03
2023-04-08T07:29:05.359Z,95057.91
2023-04-08T07:31:48.928Z,95053.16
2023-04-08T07:34:32.057Z,95054.44
2023-04-08T07:37:16.086Z,95064.06
2023-04-08T07:39:59.261Z,95068.63
2023-04-08T07:42:42.582Z,95070.34
2023-04-08T07:45:27.214Z,95058.72
2023-04-08T07:48:10.595Z,95062.91
2023-04-08T07:51:08.845Z,95074.16
2023-04-08T07:53:54.421Z,95074.66
2023-04-08T07:56:42.612Z,95070.34
2023-04-08T07:59:26.072Z,95071.56
2023-04-08T08:02:13.217Z,95076.22
2023-04-08T08:04:56.744Z,95083.53
2023-04-08T08:07:40.035Z,95072.59
2023-04-08T08:10:23.801Z,95081.25
2023-04-08T08:13:09.153Z,95079.66
2023-04-08T08:15:56.014Z,95078.75
2023-04-08T08:18:44.018Z,95080.03
2023-04-08T08:21:29.488Z,95085.72
2023-04-08T08:24:12.845Z,95085.09
2023-04-08T08:26:56.778Z,95086.06
2023-04-08T08:29:40.222Z,95082.59
2023-04-08T08:32:23.340Z,95081.78
2023-04-08T08:35:10.693Z,95093.34
2023-04-08T08:37:53.848Z,95090.88
2023-04-08T08:40:40.267Z,95097.88
2023-04-08T08:43:24.265Z,95090.84
2023-04-08T08:46:11.490Z,95102.13
2023-04-08T08:48:54.802Z,95101.38
2023-04-08T08:51:43.202Z,95094.13
2023-04-08T08:54:26.326Z,95105.88
2023-04-08T08:57:19.915Z,95108.84
2023-04-08T09:00:03.196Z,95114.63
2023-04-08T09:02:47.809Z,95115.88
2023-04-08T09:05:32.201Z,95121.16
2023-04-08T09:08:27.246Z,95105.69
2023-04-08T09:11:15.775Z,95106.31
2023-04-08T09:14:01.221Z,95113.94
2023-04-08T09:16:45.480Z,95109.88
2023-04-08T09:19:28.952Z,95110.81
2023-04-08T09:22:13.055Z,95104.63
2023-04-08T09:24:57.660Z,95105.75
2023-04-08T09:27:40.787Z,95108.78
2023-04-08T09:30:26.180Z,95107.22
2023-04-08T09:33:09.347Z,95096.88
2023-04-08T09:35:53.384Z,95092.84
2023-04-08T09:38:36.875Z,95086.22
2023-04-08T09:41:23.880Z,95079.97
2023-04-08T09:44:09.465Z,95066.06
2023-04-08T09:47:02.752Z,95072.78
2023-04-08T09:49:52.621Z,95070.31
2023-04-08T09:52:45.457Z,95071.88
2023-04-08T09:55:34.725Z,95067.94
2023-04-08T09:58:27.925Z,95071.38
2023-04-08T10:01:16.174Z,95057.22
2023-04-08T10:04:02.936Z,95059.59
2023-04-08T10:06:51.635Z,95054.00
2023-04-08T10:09:38.351Z,95067.50
2023-04-08T10:12:22.656Z,95052.50
2023-04-08T10:18:34.599Z,95059.19
2023-04-08T10:21:33.314Z,95041.16
2023-04-08T10:24:16.491Z,95070.66
2023-04-08T10:26:59.719Z,95059.66
2023-04-08T10:29:42.914Z,95064.41
2023-04-08T10:32:32.277Z,95057.75
2023-04-08T10:35:17.525Z,95052.41
2023-04-08T10:38:01.131Z,95055.41
2023-04-08T10:40:46.506Z,95055.19
2023-04-08T10:43:34.398Z,95053.00
2023-04-08T10:46:17.802Z,95046.00
2023-04-08T10:49:01.863Z,95046.03
2023-04-08T10:51:48.085Z,95043.50
2023-04-08T10:54:31.636Z,95053.03
2023-04-08T10:57:15.396Z,95049.09
2023-04-08T10:59:58.445Z,95029.38
2023-04-08T11:02:43.391Z,95041.16
2023-04-08T11:05:27.455Z,95026.78
2023-04-08T11:08:13.594Z,95021.25
2023-04-08T11:10:56.900Z,95028.94
2023-04-08T11:13:51.230Z,95024.34
2023-04-08T11:16:36.815Z,95025.56
2023-04-08T11:19:21.583Z,95016.19
2023-04-08T11:22:08.109Z,95020.44
2023-04-08T11:24:53.402Z,95021.22
2023-04-08T11:27:40.703Z,95019.31
2023-04-08T11:30:25.386Z,95019.63
2023-04-08T11:33:09.811Z,95019.41
2023-04-08T11:35:54.383Z,95012.63
2023-04-08T11:38:41.477Z,95006.31
2023-04-08T11:41:26.804Z,95016.13
2023-04-08T11:44:10.319Z,95007.59
2023-04-08T11:46:57.480Z,95015.00
2023-04-08T11:49:47.617Z,95006.31
2023-04-08T11:52:47.736Z,95009.06
2023-04-08T11:55:32.273Z,94998.81
2023-04-08T11:58:17.266Z,94996.81
2023-04-08T12:01:00.522Z,94993.22
2023-04-08T12:03:59.227Z,94989.22
2023-04-08T12:06:43.737Z,94998.19
2023-04-08T12:09:27.556Z,94985.63
2023-04-08T12:12:10.974Z,94991.53
2023-04-08T12:14:55.480Z,94985.69
2023-04-08T12:17:39.523Z,94985.41
2023-04-08T12:20:22.842Z,94980.75
2023-04-08T12:23:06.808Z,94978.41
2023-04-08T12:26:01.906Z,94984.19
2023-04-08T12:28:45.567Z,94997.13
2023-04-08T12:31:30.682Z,95003.59
2023-04-08T12:34:15.483Z,94997.28
2023-04-08T12:36:58.863Z,94990.31
2023-04-08T12:39:42.123Z,94984.16
2023-04-08T12:42:25.550Z,94987.06
2023-04-08T12:45:09.816Z,94977.44
2023-04-08T12:47:57.053Z,94967.59
2023-04-08T12:50:40.720Z,94966.00
2023-04-08T12:53:25.049Z,94964.88
2023-04-08T12:56:09.368Z,94965.56
2023-04-08T12:58:53.099Z,94957.59
2023-04-08T13:01:36.612Z,94956.16
2023-04-08T13:04:21.649Z,94962.16
2023-04-08T13:07:07.758Z,94953.88
2023-04-08T13:09:55.586Z,94955.13
2023-04-08T13:12:40.390Z,94952.97
2023-04-08T13:15:25.811Z,94943.88
2023-04-08T13:18:11.325Z,94949.59
2023-04-08T13:20:58.717Z,94945.75
2023-04-08T13:23:41.994Z,94938.88
2023-04-08T13:26:25.853Z,94935.84
2023-04-08T13:29:09.059Z,94935.59
2023-04-08T13:31:53.620Z,94947.50
2023-04-08T13:34:36.969Z,94945.72
2023-04-08T13:37:21.641Z,94940.13
2023-04-08T13:40:06.048Z,94940.69
2023-04-08T13:42:49.306Z,94941.28
2023-04-08T13:45:34.445Z,94940.97
2023-04-08T13:48:17.933Z,94940.81
2023-04-08T13:51:01.130Z,94951.75
2023-04-08T13:53:45.765Z,94947.00
2023-04-08T13:56:28.965Z,94954.59
2023-04-08T13:59:12.602Z,94957.78
2023-04-08T14:01:55.946Z,94950.66
2023-04-08T14:04:41.838Z,94953.66
2023-04-08T14:07:25.212Z,94947.47
2023-04-08T14:10:14.987Z,94959.88
2023-04-08T14:12:58.186Z,94955.66
2023-04-08T14:15:41.515Z,94961.44
2023-04-08T14:18:25.196Z,94961.88
2023-04-08T14:21:11.978Z,94959.38
2023-04-08T14:23:55.594Z,94967.03
2023-04-08T14:26:41.487Z,94954.16
2023-04-08T14:29:27.309Z,94954.56
2023-04-08T14:32:11.560Z,94942.25
2023-04-08T14:34:54.846Z,94956.22
2023-04-08T14:37:38.684Z,94953.25
2023-04-08T14:40:22.640Z,94962.84
2023-04-08T14:43:07.576Z,94949.09
2023-04-08T14:45:52.053Z,94954.47
2023-04-08T14:48:35.257Z,94952.66
2023-04-08T14:51:18.541Z,94948.53
2023-04-08T14:54:03.274Z,94950.78
2023-04-08T14:56:47.014Z,94950.66
2023-04-08T14:59:31.848Z,94947.41
2023-04-08T15:02:16.286Z,94946.50
2023-04-08T15:04:59.650Z,94935.28
2023-04-08T15:07:43.502Z,94936.22
2023-04-08T15:10:28.670Z,94947.53
2023-04-08T15:13:12.046Z,94951.66
2023-04-08T15:15:58.261Z,94952.13
2023-04-08T15:18:42.485Z,94947.06
2023-04-08T15:21:27.426Z,94943.00
2023-04-08T15:24:10.922Z,94951.00
2023-04-08T15:26:55.056Z,94954.41
2023-04-08T15:29:39.078Z,94953.75
2023-04-08T15:32:29.072Z,94958.47
2023-04-08T15:35:13.197Z,94952.28
2023-04-08T15:37:57.914Z,94951.81
2023-04-08T15:40:41.075Z,94962.38
2023-04-08T15:43:24.297Z,94957.06
2023-04-08T15:46:07.657Z,94952.25
2023-04-08T15:48:52.712Z,94952.13
2023-04-08T15:51:39.704Z,94954.09
2023-04-08T15:54:23.646Z,94957.13
2023-04-08T15:57:07.261Z,94961.31
2023-04-08T15:59:57.351Z,94958.94
2023-04-08T16:02:41.085Z,94954.72
2023-04-08T16:05:26.192Z,94969.22
2023-04-08T16:08:10.504Z,94970.63
2023-04-08T16:10:53.967Z,94967.13
2023-04-08T16:13:40.200Z,94973.63
2023-04-08T16:16:23.914Z,94972.78
2023-04-08T16:19:09.487Z,94979.72
2023-04-08T16:21:55.159Z,94979.44
2023-04-08T16:24:38.955Z,94974.09
2023-04-08T16:27:22.911Z,94976.72
2023-04-08T16:30:07.562Z,94983.91
2023-04-08T16:32:50.850Z,94985.06
2023-04-08T16:35:34.203Z,94981.31
2023-04-08T16:38:18.834Z,94988.81
2023-04-08T16:41:02.209Z,94985.66
2023-04-08T16:43:45.818Z,94997.78
2023-04-08T16:46:29.448Z,94997.19
2023-04-08T16:49:16.841Z,94997.88
2023-04-08T16:52:02.477Z,94997.22
2023-04-08T16:54:47.853Z,94990.44
2023-04-08T16:57:31.168Z,95004.97
2023-04-08T17:00:16.873Z,95008.19
2023-04-08T17:03:01.820Z,94997.66
2023-04-08T17:05:45.286Z,95013.91
2023-04-08T17:08:28.776Z,95023.25
2023-04-08T17:11:15.569Z,95016.78
2023-04-08T17:13:59.380Z,95017.94
2023-04-08T17:16:42.634Z,95027.13
2023-04-08T17:19:27.921Z,95037.97
2023-04-08T17:22:11.563Z,95036.19
2023-04-08T17:24:55.489Z,95040.34
2023-04-08T17:27:40.260Z,95048.38
2023-04-08T17:30:24.023Z,95057.97
2023-04-08T17:33:10.283Z,95055.81
2023-04-08T17:35:56.184Z,95062.00
2023-04-08T17:38:42.324Z,95069.59
2023-04-08T17:41:38.963Z,95078.19
2023-04-08T17:44:29.719Z,95078.72
2023-04-08T17:47:13.094Z,95082.13
2023-04-08T17:49:56.884Z,95086.50
2023-04-08T17:52:40.173Z,95094.91
2023-04-08T17:55:23.586Z,95090.69
2023-04-08T17:58:06.857Z,95098.03
2023-04-08T18:00:53.158Z,95102.06
2023-04-08T18:03:36.768Z,95109.63
2023-04-08T18:06:20.167Z,95112.38
2023-04-08T18:09:04.490Z,95113.56
2023-04-08T18:11:47.622Z,95113.22
2023-04-08T18:14:31.563Z,95118.38
2023-04-08T18:17:20.021Z,95129.16
2023-04-08T18:20:03.749Z,95133.91
2023-04-08T18:22:48.650Z,95125.56
2023-04-08T18:25:32.533Z,95131.13
2023-04-08T18:28:16.167Z,95136.16
2023-04-08T18:30:59.464Z,95137.13
2023-04-08T18:33:44.964Z,95132.16
2023-04-08T18:36:28.552Z,95136.34
2023-04-08T18:39:12.081Z,95138.34
2023-04-08T18:41:56.175Z,95137.13
2023-04-08T18:44:40.569Z,95138.34
2023-04-08T18:47:24.303Z,95133.53
2023-04-08T18:50:09.737Z,95146.50
2023-04-08T18:52:53.954Z,95137.94
2023-04-08T18:55:38.953Z,95143.13
2023-04-08T18:58:22.201Z,95142.50
2023-04-08T19:01:08.776Z,95148.69
2023-04-08T19:03:54.875Z,95150.09
2023-04-08T19:06:41.010Z,95160.22
2023-04-08T19:09:25.344Z,95169.78
2023-04-08T19:12:10.167Z,95165.38
2023-04-08T19:14:54.679Z,95170.56
2023-04-08T19:17:41.221Z,95177.13
2023-04-08T19:20:25.156Z,95180.53
2023-04-08T19:23:10.193Z,95186.28
2023-04-08T19:25:53.882Z,95188.50
2023-04-08T19:28:37.876Z,95189.88
2023-04-08T19:31:22.226Z,95189.66
2023-04-08T19:34:06.862Z,95188.84
2023-04-08T19:36:52.166Z,95200.03
2023-04-08T19:39:40.227Z,95201.63
2023-04-08T19:42:24.694Z,95202.63
2023-04-08T19:45:15.996Z,95195.84
2023-04-08T19:47:59.524Z,95196.44
2023-04-08T19:50:43.375Z,95198.03
2023-04-08T19:53:26.645Z,95196.88
2023-04-08T19:56:12.782Z,95192.09
2023-04-08T19:58:56.854Z,95197.41
2023-04-08T20:01:44.147Z,95188.09
2023-04-08T20:04:27.595Z,95196.44
2023-04-08T20:07:11.225Z,95191.88
2023-04-08T20:09:54.514Z,95191.06
2023-04-08T20:12:44.714Z,95190.88
2023-04-08T20:15:28.570Z,95192.06
2023-04-08T20:18:31.438Z,95180.16
2023-04-08T20:21:15.755Z,95183.50
2023-04-08T20:24:00.206Z,95182.94
2023-04-08T20:26:44.946Z,95188.50
2023-04-08T20:29:29.807Z,95187.28
2023-04-08T20:32:15.705Z,95187.72
2023-04-08T20:34:59.870Z,95188.69
2023-04-08T20:37:43.406Z,95189.69
2023-04-08T20:40:29.469Z,95189.50
2023-04-08T20:43:14.662Z,95190.69
2023-04-08T20:46:03.550Z,95192.06
2023-04-08T20:48:47.298Z,95195.25
2023-04-08T20:51:31.439Z,95200.81
2023-04-08T20:54:15.952Z,95196.84
2023-04-08T20:56:59.306Z,95201.59
2023-04-08T20:59:42.604Z,95187.25
2023-04-08T21:02:28.553Z,95200.38
2023-04-08T21:05:20.270Z,95198.41
2023-04-08T21:08:04.368Z,95196.59
2023-04-08T21:10:49.749Z,95189.81
2023-04-08T21:13:33.720Z,95189.38
2023-04-08T21:16:21.588Z,95182.06
2023-04-08T21:19:11.697Z,95183.16
2023-04-08T21:22:03.970Z,95178.00
2023-04-08T21:24:54.082Z,95187.75
2023-04-08T21:27:40.808Z,95187.16
2023-04-08T21:30:28.526Z,95184.81
2023-04-08T21:33:18.142Z,95177.63
2023-04-08T21:36:07.949Z,95182.00
2023-04-08T21:38:59.144Z,95186.00
2023-04-08T21:41:43.645Z,95181.22
2023-04-08T21:44:32.163Z,95185.38
2023-04-08T21:47:18.921Z,95182.22
2023-04-08T21:50:02.239Z,95177.06
2023-04-08T21:52:47.925Z,95179.59
2023-04-08T21:55:31.417Z,95178.59
2023-04-08T21:58:14.866Z,95175.22
2023-04-08T22:00:58.158Z,95168.91
2023-04-08T22:03:41.335Z,95177.66
2023-04-08T22:06:31.979Z,95179.22
2023-04-08T22:09:19.447Z,95173.69
2023-04-08T22:12:03.152Z,95176.88
2023-04-08T22:14:47.679Z,95176.91
2023-04-08T22:17:31.646Z,95178.50
2023-04-08T22:20:14.770Z,95175.69
2023-04-08T22:22:57.931Z,95174.88
2023-04-08T22:25:43.710Z,95173.34
2023-04-08T22:28:27.241Z,95168.97
2023-04-08T22:31:11.930Z,95171.31
2023-04-08T22:33:56.424Z,95172.53
2023-04-08T22:36:42.364Z,95174.09
2023-04-08T22:39:27.632Z,95169.91
2023-04-08T22:42:12.375Z,95168.09
2023-04-08T22:44:56.005Z,95170.69
2023-04-08T22:47:39.522Z,95168.88
2023-04-08T22:50:23.265Z,95172.25
2023-04-08T22:53:07.339Z,95172.25
2023-04-08T22:55:50.790Z,95170.66
2023-04-08T22:58:36.646Z,95172.78
2023-04-08T23:01:21.014Z,95169.22
2023-04-08T23:04:04.480Z,95170.56
2023-04-08T23:06:47.648Z,95162.81
2023-04-08T23:09:31.275Z,95162.03
2023-04-08T23:12:14.475Z,95159.88
2023-04-08T23:14:59.282Z,95159.09
2023-04-08T23:17:42.597Z,95147.41
2023-04-08T23:20:26.080Z,95152.94
2023-04-08T23:23:09.673Z,95143.78
2023-04-08T23:25:55.370Z,95141.00
2023-04-08T23:28:39.063Z,95139.03
2023-04-08T23:31:23.639Z,95143.81
2023-04-08T23:34:06.919Z,95140.63
2023-04-08T23:36:50.140Z,95142.59
2023-04-08T23:39:36.062Z,95144.75
2023-04-08T23:42:19.486Z,95140.19
2023-04-08T23:45:03.132Z,95127.50
2023-04-08T23:47:48.040Z,95137.63
2023-04-08T23:50:31.442Z,95137.44
2023-04-08T23:53:14.981Z,95128.91
2023-04-08T23:56:05.746Z,95137.44
2023-04-08T23:58:49.273Z,95134.22
